Omaha, NE

11:38 AM CST en Enero 31, 2015 (GMT -0600)
Midtown Crossing area | Change Station
CLOSE
Current Station
Estación meteorológica personal
Location: Omaha, NE
Altura: 1161 ft
Estaciones meteorológicas cercanas
Aviso en curso: Winter Weather Advisory

Alt 1161 ft 41.26 °N, 95.96 °W | Updated 30 seconds ago

Gránulos de hielo
Gránulos de hielo
34.2 ° F
Sensación térmica 30 ° F
N
4.5
Viento Variable Viento desde SO
Gusts 4.9 mph

Hoy
Alta -- | Baja -- ° F
--% Posibilidad de precipitaciones
Ayer
Alta -- | Baja -- ° F
Precip. -- pul
7:36 AM 5:38 PM
Gibosa creciente, 90% visible
Presión 30.15 pul
Visibilidad 2.0 Millas
Nubes Nublado 700 ft
Vientos helados 30 ° F
Punto de rocío 34 ° F
Humedad 98%
Precipitaciones 0.04 pul
Espesor de la nieve No disponible.
UV 1.0 de una escala de 12
Polen .10 de una escala de 12
Calidad del aire No disponible.
Flu Activity No disponible.
SPECI KOMA 311659Z 17009KT 2SM -RASN BR OVC007 01/01 A3015 RMK AO2 SFC VIS 2 1/2 P0000 T00110006

More Conditions Fewer Conditions

Presión 30.15 pul
Visibilidad 2.0 Millas
Nubes Nublado 700 ft
Vientos helados 30 ° F
Punto de rocío 34 ° F
Humedad 98%
Precipitaciones 0.04 pul
Espesor de la nieve No disponible.
UV 1.0 de una escala de 12
Polen .10 de una escala de 12
Calidad del aire No disponible.
Flu Activity No disponible.
SPECI KOMA 311659Z 17009KT 2SM -RASN BR OVC007 01/01 A3015 RMK AO2 SFC VIS 2 1/2 P0000 T00110006

More Conditions Fewer Conditions

10-Day Weather Forecast

Almanac

Astronomía

Jan. 31, 2015 Salida Puesta
Hora real
Crepúsculo civil
Crepúsculo náutico
Crepúsculo astronómico
Luna
Horas de luz
Horas de luz
Tomorrow will be .
, % of the Moon is Illuminated

Extremos de hoy

Máximos del estado Bajos del estado

Community

WunderPhotos

Upload Photos

1,792,128 ¡fotos cargadas!

WunderBlogs® & News

Nearby

Calidad del aire

  Calidad del aire Índice AQ Contaminante
Not available.

Grosos de nieve

Estación Profundido Altura

Actividad de terremotos

Ciudad Distance Mag. Tiempo y dato
Magnitud mínima muestra es 2,5.

Temperaturas de aguas costeras

Lugar Temperatura

Estaciones meteorológicas cercanas